Patriot — WAIU — position and weather

sailwx.info

Track history (hours):
 
Tides and Currents Weather Stations Pressure Air Temp Water Temp Dewpoint Dewpoint Depression Visibility Wind Speed Wind Dir Waves Ship Positions

Patriot

Owner: TOTE Services, Inc, Jacksonville, FL. More information available from US FCC via Universal Licensing System and Coast Guard Vessel Documentation Center.

Last reported at 2018-Feb-19 00:00 UTC. Time now 2018-Feb-19 17:47 UTC.
Position N 34°12' W 076°06'.

Length 200 m; draft 9.1 m.

Type: Cargo ship. MMSI: 303210000.

Wind from 040 at 16 knots

Barometer 1022.0 mb
Air temperature 16.0 ° C
Visibility: greater than 10.8 NM
Dewpoint 12.6 ° C
Water temperature 22.0 ° C

Date/timePositionNaut miles runAvg speedWind from/ knotsBaromVisibWave heightAir tempDewpointWater temp
2018-Feb-19 00:00N 34°12' W 076°06'33214.9 040 / 161022.010.8 16.012.622.0
2018-Feb-18 01:42N 39°28' W 073°59'616.8
2018-Feb-18 01:21N 39°34' W 073°57'616.7
2018-Feb-18 00:59N 39°40' W 073°55'3315.0
2018-Feb-17 22:47N 40°12' W 073°50'410.0
2018-Feb-17 22:24N 40°16' W 073°50'4 9.9
2018-Feb-17 22:00N 40°20' W 073°49'5 9.7
2018-Feb-17 21:27N 40°26' W 073°49'4 8.7
2018-Feb-17 21:00N 40°28' W 073°52'611.5
2018-Feb-17 20:30N 40°31' W 073°59'713.5
2018-Feb-17 20:00N 40°37' W 074°03'3 6.9
2018-Feb-17 19:31N 40°39' W 074°07'2 3.8
2018-Feb-17 19:00N 40°40' W 074°08'1 2.8
2018-Feb-17 18:29N 40°42' W 074°09'0 0.0
2018-Feb-17 17:59N 40°42' W 074°09'0 0.0
2018-Feb-17 17:29N 40°42' W 074°09'0 0.0
2018-Feb-17 16:59N 40°42' W 074°09'0 0.0
2018-Feb-17 16:29N 40°42' W 074°09'0 0.0
2018-Feb-17 15:59N 40°42' W 074°09'0 0.0
2018-Feb-17 15:29N 40°42' W 074°09'0 0.0
2018-Feb-17 14:59N 40°42' W 074°09'0 0.0
2018-Feb-17 14:29N 40°42' W 074°09'0 0.0
2018-Feb-17 13:59N 40°42' W 074°09'0 0.0
2018-Feb-17 13:29N 40°42' W 074°09'0 0.0
2018-Feb-17 12:59N 40°42' W 074°09'0 0.0
2018-Feb-17 12:29N 40°42' W 074°09'0 0.0
2018-Feb-17 11:59N 40°42' W 074°09'0 0.0
2018-Feb-17 11:29N 40°42' W 074°09'0 0.1
2018-Feb-17 11:00N 40°42' W 074°08'3 5.2
2018-Feb-17 10:30N 40°39' W 074°09'3 5.2
2018-Feb-17 10:00N 40°39' W 074°05'1 2.7
2018-Feb-17 09:30N 40°40' W 074°04'0 0.5
2018-Feb-17 08:59N 40°40' W 074°04'0 0.0
2018-Feb-17 08:29N 40°40' W 074°04'0 0.0
2018-Feb-17 07:59N 40°40' W 074°04'0 0.0
2018-Feb-17 07:29N 40°40' W 074°04'0 0.0
2018-Feb-17 06:59N 40°40' W 074°04'0 0.0
2018-Feb-17 06:29N 40°40' W 074°04'0 0.0
2018-Feb-17 05:59N 40°40' W 074°04'0 0.0
2018-Feb-17 05:29N 40°40' W 074°04'0 0.0
2018-Feb-17 04:59N 40°40' W 074°04'0 0.0
2018-Feb-17 04:29N 40°40' W 074°04'0 0.0
2018-Feb-17 03:59N 40°40' W 074°04'0 0.0
2018-Feb-17 03:29N 40°40' W 074°04'0 0.0
2018-Feb-17 02:59N 40°40' W 074°04'0 0.0
2018-Feb-17 02:29N 40°40' W 074°04'0 0.0
2018-Feb-17 01:59N 40°40' W 074°04'0 0.0
2018-Feb-17 01:29N 40°40' W 074°04'0 0.0
2018-Feb-17 00:59N 40°40' W 074°04'0 0.0
2018-Feb-17 00:29N 40°40' W 074°04'0 0.0
2018-Feb-16 23:59N 40°40' W 074°04'0 0.0
2018-Feb-16 23:29N 40°40' W 074°04'0 0.0
2018-Feb-16 22:59N 40°40' W 074°04'0 0.0
2018-Feb-16 22:29N 40°40' W 074°04'0 0.0
2018-Feb-16 21:59N 40°40' W 074°04'0 0.0
2018-Feb-16 21:29N 40°40' W 074°04'0 0.0
2018-Feb-16 20:59N 40°40' W 074°04'0 0.0
2018-Feb-16 20:29N 40°40' W 074°04'0 0.0
2018-Feb-16 19:59N 40°40' W 074°04'0 0.0
2018-Feb-16 19:29N 40°40' W 074°04'0 0.0
2018-Feb-16 18:59N 40°40' W 074°04'0 0.0
2018-Feb-16 18:29N 40°40' W 074°04'0 0.0
2018-Feb-16 17:59N 40°40' W 074°04'0 0.0
2018-Feb-16 17:29N 40°40' W 074°04'0 0.0
2018-Feb-16 16:59N 40°40' W 074°04'0 0.0
2018-Feb-16 16:29N 40°40' W 074°04'0 0.0
2018-Feb-16 15:59N 40°40' W 074°04'0 0.0
2018-Feb-16 15:29N 40°40' W 074°04'0 0.0
2018-Feb-16 14:59N 40°40' W 074°04'0 0.0
2018-Feb-16 14:29N 40°40' W 074°04'0 0.0
2018-Feb-16 14:00N 40°40' W 074°04'2 4.6
2018-Feb-16 13:30N 40°38' W 074°03'713.6
2018-Feb-16 13:00N 40°31' W 074°00'612.1
2018-Feb-16 12:29N 40°29' W 073°53'4 7.8
2018-Feb-16 12:00N 40°27' W 073°48'4 7.0
2018-Feb-16 11:30N 40°27' W 073°44'37516.0
2018-Feb-15 12:00N 42°24' W 065°48'182 6.1 230 / 131011.0 5.4 6.0 5.0 2.0
2018-Feb-14 06:00N 44°30' W 062°48'44 7.4 270 / 131028.010.8 -4.0-6.8 1.0
2018-Feb-14 00:00N 44°42' W 061°48'38 3.2 340 / 91029.010.8 -4.0-6.8-0.0
2018-Feb-13 12:00N 45°00' W 061°00'14 4.7 330 / 241021.010.8 -5.0-8.0-0.0
2018-Feb-13 09:00N 45°06' W 060°42'18 6.0 330 / 401020.027.0 -4.0-6.8-0.0
2018-Feb-13 06:00N 45°12' W 060°18'38 6.4 320 / 131018.027.0 -2.0-4.5-0.0
2018-Feb-13 00:00N 45°18' W 059°24'110 9.1 290 / 251012.010.8 3.0 0.6-0.0
2018-Feb-12 12:00N 45°24' W 056°48'18515.4 230 / 451006.0 0.5 5.0 5.0 2.0
2018-Feb-12 00:00N 45°30' W 052°24'54515.1 270 / 201015.0 0.5 6.0 3.9 2.0
2018-Feb-10 12:00N 44°36' W 039°36'8213.7 360 / 261027.010.8 6.0 1.517.0
2018-Feb-10 06:00N 44°24' W 037°42'42014.0 330 / 351022.0 5.4 9.0 7.115.0
2018-Feb-09 00:00N 45°18' W 027°54'   320 / 101026.010.8 11.0 9.215.0
Track history (hours):
 
Tides and Currents Weather Stations Pressure Air Temp Water Temp Dewpoint Dewpoint Depression Visibility Wind Speed Wind Dir Waves Ship Positions

Patriot

Owner: TOTE Services, Inc, Jacksonville, FL. More information available from US FCC via Universal Licensing System and Coast Guard Vessel Documentation Center.

Last reported at 2018-Feb-19 00:00 UTC. Time now 2018-Feb-19 17:47 UTC.
Position N 34°12' W 076°06'.

Length 200 m; draft 9.1 m.

Type: Cargo ship. MMSI: 303210000.

Wind from 040 at 16 knots

Barometer 1022.0 mb
Air temperature 16.0 ° C
Visibility: greater than 10.8 NM
Dewpoint 12.6 ° C
Water temperature 22.0 ° C

Date/timePositionNaut miles runAvg speedWind from/ knotsBaromVisibWave heightAir tempDewpointWater temp
2018-Feb-19 00:00N 34°12' W 076°06'33214.9 040 / 161022.010.8 16.012.622.0
2018-Feb-18 01:42N 39°28' W 073°59'616.8
2018-Feb-18 01:21N 39°34' W 073°57'616.7
2018-Feb-18 00:59N 39°40' W 073°55'3315.0
2018-Feb-17 22:47N 40°12' W 073°50'410.0
2018-Feb-17 22:24N 40°16' W 073°50'4 9.9
2018-Feb-17 22:00N 40°20' W 073°49'5 9.7
2018-Feb-17 21:27N 40°26' W 073°49'4 8.7
2018-Feb-17 21:00N 40°28' W 073°52'611.5
2018-Feb-17 20:30N 40°31' W 073°59'713.5
2018-Feb-17 20:00N 40°37' W 074°03'3 6.9
2018-Feb-17 19:31N 40°39' W 074°07'2 3.8
2018-Feb-17 19:00N 40°40' W 074°08'1 2.8
2018-Feb-17 18:29N 40°42' W 074°09'0 0.0
2018-Feb-17 17:59N 40°42' W 074°09'0 0.0
2018-Feb-17 17:29N 40°42' W 074°09'0 0.0
2018-Feb-17 16:59N 40°42' W 074°09'0 0.0
2018-Feb-17 16:29N 40°42' W 074°09'0 0.0
2018-Feb-17 15:59N 40°42' W 074°09'0 0.0
2018-Feb-17 15:29N 40°42' W 074°09'0 0.0
2018-Feb-17 14:59N 40°42' W 074°09'0 0.0
2018-Feb-17 14:29N 40°42' W 074°09'0 0.0
2018-Feb-17 13:59N 40°42' W 074°09'0 0.0
2018-Feb-17 13:29N 40°42' W 074°09'0 0.0
2018-Feb-17 12:59N 40°42' W 074°09'0 0.0
2018-Feb-17 12:29N 40°42' W 074°09'0 0.0
2018-Feb-17 11:59N 40°42' W 074°09'0 0.0
2018-Feb-17 11:29N 40°42' W 074°09'0 0.1
2018-Feb-17 11:00N 40°42' W 074°08'3 5.2
2018-Feb-17 10:30N 40°39' W 074°09'3 5.2
2018-Feb-17 10:00N 40°39' W 074°05'1 2.7
2018-Feb-17 09:30N 40°40' W 074°04'0 0.5
2018-Feb-17 08:59N 40°40' W 074°04'0 0.0
2018-Feb-17 08:29N 40°40' W 074°04'0 0.0
2018-Feb-17 07:59N 40°40' W 074°04'0 0.0
2018-Feb-17 07:29N 40°40' W 074°04'0 0.0
2018-Feb-17 06:59N 40°40' W 074°04'0 0.0
2018-Feb-17 06:29N 40°40' W 074°04'0 0.0
2018-Feb-17 05:59N 40°40' W 074°04'0 0.0
2018-Feb-17 05:29N 40°40' W 074°04'0 0.0
2018-Feb-17 04:59N 40°40' W 074°04'0 0.0
2018-Feb-17 04:29N 40°40' W 074°04'0 0.0
2018-Feb-17 03:59N 40°40' W 074°04'0 0.0
2018-Feb-17 03:29N 40°40' W 074°04'0 0.0
2018-Feb-17 02:59N 40°40' W 074°04'0 0.0
2018-Feb-17 02:29N 40°40' W 074°04'0 0.0
2018-Feb-17 01:59N 40°40' W 074°04'0 0.0
2018-Feb-17 01:29N 40°40' W 074°04'0 0.0
2018-Feb-17 00:59N 40°40' W 074°04'0 0.0
2018-Feb-17 00:29N 40°40' W 074°04'0 0.0
2018-Feb-16 23:59N 40°40' W 074°04'0 0.0
2018-Feb-16 23:29N 40°40' W 074°04'0 0.0
2018-Feb-16 22:59N 40°40' W 074°04'0 0.0
2018-Feb-16 22:29N 40°40' W 074°04'0 0.0
2018-Feb-16 21:59N 40°40' W 074°04'0 0.0
2018-Feb-16 21:29N 40°40' W 074°04'0 0.0
2018-Feb-16 20:59N 40°40' W 074°04'0 0.0
2018-Feb-16 20:29N 40°40' W 074°04'0 0.0
2018-Feb-16 19:59N 40°40' W 074°04'0 0.0
2018-Feb-16 19:29N 40°40' W 074°04'0 0.0
2018-Feb-16 18:59N 40°40' W 074°04'0 0.0
2018-Feb-16 18:29N 40°40' W 074°04'0 0.0
2018-Feb-16 17:59N 40°40' W 074°04'0 0.0
2018-Feb-16 17:29N 40°40' W 074°04'0 0.0
2018-Feb-16 16:59N 40°40' W 074°04'0 0.0
2018-Feb-16 16:29N 40°40' W 074°04'0 0.0
2018-Feb-16 15:59N 40°40' W 074°04'0 0.0
2018-Feb-16 15:29N 40°40' W 074°04'0 0.0
2018-Feb-16 14:59N 40°40' W 074°04'0 0.0
2018-Feb-16 14:29N 40°40' W 074°04'0 0.0
2018-Feb-16 14:00N 40°40' W 074°04'2 4.6
2018-Feb-16 13:30N 40°38' W 074°03'713.6
2018-Feb-16 13:00N 40°31' W 074°00'612.1
2018-Feb-16 12:29N 40°29' W 073°53'4 7.8
2018-Feb-16 12:00N 40°27' W 073°48'4 7.0
2018-Feb-16 11:30N 40°27' W 073°44'37516.0
2018-Feb-15 12:00N 42°24' W 065°48'182 6.1 230 / 131011.0 5.4 6.0 5.0 2.0
2018-Feb-14 06:00N 44°30' W 062°48'44 7.4 270 / 131028.010.8 -4.0-6.8 1.0
2018-Feb-14 00:00N 44°42' W 061°48'38 3.2 340 / 91029.010.8 -4.0-6.8-0.0
2018-Feb-13 12:00N 45°00' W 061°00'14 4.7 330 / 241021.010.8 -5.0-8.0-0.0
2018-Feb-13 09:00N 45°06' W 060°42'18 6.0 330 / 401020.027.0 -4.0-6.8-0.0
2018-Feb-13 06:00N 45°12' W 060°18'38 6.4 320 / 131018.027.0 -2.0-4.5-0.0
2018-Feb-13 00:00N 45°18' W 059°24'110 9.1 290 / 251012.010.8 3.0 0.6-0.0
2018-Feb-12 12:00N 45°24' W 056°48'18515.4 230 / 451006.0 0.5 5.0 5.0 2.0
2018-Feb-12 00:00N 45°30' W 052°24'54515.1 270 / 201015.0 0.5 6.0 3.9 2.0
2018-Feb-10 12:00N 44°36' W 039°36'8213.7 360 / 261027.010.8 6.0 1.517.0
2018-Feb-10 06:00N 44°24' W 037°42'42014.0 330 / 351022.0 5.4 9.0 7.115.0
2018-Feb-09 00:00N 45°18' W 027°54'   320 / 101026.010.8 11.0 9.215.0

Dump ship's entire track history